Time;durP1;ratioP1;P1;durP2;ratioP2;P2;SDS_P1;SDS_P2;PMS_P1;PMS_P2;Temp;Humidity;BMP_temperature;BMP_pressure;BME280_temperature;BME280_humidity;BME280_pressure;Samples;Min_cycle;Max_cycle;Signal;HPM_P1;HPM_P2
2021/10/10 00:01:32;;;;;;;12.43;7.20;;;;;;;;;;5107471;28;20802;-82
2021/10/10 00:04:00;;;;;;;19.87;7.13;;;;;;;;;;5107641;28;20491;-79
2021/10/10 00:06:27;;;;;;;9.43;5.53;;;;;;;;;;5108913;28;20452;-81
2021/10/10 00:08:54;;;;;;;10.07;6.83;;;;;;;;;;5106582;28;20479;-82
2021/10/10 00:11:22;;;;;;;10.30;7.07;;;;;;;;;;5107314;28;20755;-82
2021/10/10 00:13:49;;;;;;;11.10;6.70;;;;;;;;;;5106988;28;20470;-83
2021/10/10 00:16:16;;;;;;;9.53;5.53;;;;;;;;;;5107087;28;20479;-82
2021/10/10 00:18:43;;;;;;;10.70;6.43;;;;;;;;;;5108370;28;20452;-82
2021/10/10 00:21:10;;;;;;;9.33;5.50;;;;;;;;;;5107199;28;20507;-82
2021/10/10 00:23:37;;;;;;;17.23;6.33;;;;;;;;;;5108651;28;20644;-82
2021/10/10 00:26:04;;;;;;;7.00;5.20;;;;;;;;;;5106326;28;20463;-82
2021/10/10 00:28:32;;;;;;;8.30;5.60;;;;;;;;;;5108590;28;20450;-82
2021/10/10 00:30:59;;;;;;;7.53;5.17;;;;;;;;;;5108103;28;20723;-82
2021/10/10 00:33:26;;;;;;;6.93;4.73;;;;;;;;;;5106919;28;20459;-81
2021/10/10 00:35:53;;;;;;;8.60;5.20;;;;;;;;;;5110013;28;20459;-82
2021/10/10 00:38:20;;;;;;;11.53;6.10;;;;;;;;;;5108319;28;20455;-82
2021/10/10 00:40:47;;;;;;;8.33;5.47;;;;;;;;;;5108026;28;20564;-81
2021/10/10 00:43:14;;;;;;;9.77;6.07;;;;;;;;;;5108619;28;20490;-82
2021/10/10 00:45:47;;;;;;;11.30;5.40;;;;;;;;;;5107304;28;20511;-82
2021/10/10 00:48:14;;;;;;;10.40;6.63;;;;;;;;;;5107741;28;20528;-81
2021/10/10 00:50:41;;;;;;;9.70;6.70;;;;;;;;;;5107178;28;20678;-82
2021/10/10 00:53:09;;;;;;;8.50;4.97;;;;;;;;;;5107804;28;20476;-81
2021/10/10 00:55:36;;;;;;;8.43;5.87;;;;;;;;;;5107268;28;20447;-80
2021/10/10 00:58:03;;;;;;;6.10;4.60;;;;;;;;;;5106426;28;20778;-81
2021/10/10 01:00:30;;;;;;;7.00;4.70;;;;;;;;;;5108115;28;20495;-81
2021/10/10 01:02:59;;;;;;;9.67;5.60;;;;;;;;;;5105809;28;20479;-82
2021/10/10 01:05:26;;;;;;;10.07;5.60;;;;;;;;;;5106836;28;20451;-81
2021/10/10 01:07:53;;;;;;;7.70;5.97;;;;;;;;;;5106614;28;20554;-81
2021/10/10 01:10:21;;;;;;;8.40;5.60;;;;;;;;;;5105924;28;20475;-81
2021/10/10 01:12:48;;;;;;;9.20;6.10;;;;;;;;;;5111217;28;20479;-82
2021/10/10 01:15:15;;;;;;;9.27;5.53;;;;;;;;;;5110380;28;20447;-82
2021/10/10 01:17:43;;;;;;;7.33;5.37;;;;;;;;;;5111943;28;20489;-81
2021/10/10 01:20:11;;;;;;;11.13;5.90;;;;;;;;;;5110537;28;20475;-82
2021/10/10 01:22:39;;;;;;;12.40;6.87;;;;;;;;;;5110930;28;20470;-81
2021/10/10 01:25:06;;;;;;;8.57;4.97;;;;;;;;;;5111619;28;20459;-81
2021/10/10 01:27:34;;;;;;;6.80;5.53;;;;;;;;;;5109815;28;20914;-80
2021/10/10 01:30:01;;;;;;;7.67;5.13;;;;;;;;;;5110626;28;20474;-81
2021/10/10 01:32:28;;;;;;;8.27;5.67;;;;;;;;;;5110568;28;20552;-83
2021/10/10 01:34:55;;;;;;;13.00;5.37;;;;;;;;;;5110043;28;20464;-82
2021/10/10 01:37:22;;;;;;;13.60;7.40;;;;;;;;;;5110427;28;20540;-81
2021/10/10 01:39:49;;;;;;;11.07;6.40;;;;;;;;;;5109515;28;20609;-82
2021/10/10 01:42:16;;;;;;;9.27;5.87;;;;;;;;;;5110457;28;20548;-81
2021/10/10 01:44:43;;;;;;;6.83;5.97;;;;;;;;;;5111244;28;20471;-82
2021/10/10 01:47:10;;;;;;;7.70;5.80;;;;;;;;;;5110598;28;20495;-81
2021/10/10 01:49:38;;;;;;;9.37;5.93;;;;;;;;;;5109441;28;20451;-81
2021/10/10 01:52:05;;;;;;;10.73;5.80;;;;;;;;;;5109780;28;20759;-82
2021/10/10 01:54:32;;;;;;;9.00;6.13;;;;;;;;;;5110124;28;20482;-82
2021/10/10 01:57:00;;;;;;;17.87;6.07;;;;;;;;;;5109688;28;20471;-79
2021/10/10 01:59:30;;;;;;;8.63;5.70;;;;;;;;;;5109384;28;20479;-80
2021/10/10 02:01:57;;;;;;;8.00;5.60;;;;;;;;;;5109162;28;20471;-82
2021/10/10 02:04:24;;;;;;;8.70;6.20;;;;;;;;;;5109190;28;20807;-81
2021/10/10 02:06:51;;;;;;;10.77;6.87;;;;;;;;;;5109564;28;20530;-82
2021/10/10 02:09:18;;;;;;;8.50;5.23;;;;;;;;;;5109584;28;20487;-80
2021/10/10 02:11:45;;;;;;;8.83;5.93;;;;;;;;;;5110362;28;20448;-81
2021/10/10 02:14:12;;;;;;;9.50;6.37;;;;;;;;;;5108676;28;20440;-81
2021/10/10 02:16:39;;;;;;;7.87;5.83;;;;;;;;;;5109218;28;20470;-80
2021/10/10 02:19:12;;;;;;;10.57;5.67;;;;;;;;;;5108529;28;20548;-81
2021/10/10 02:21:39;;;;;;;9.60;5.90;;;;;;;;;;5108318;28;20856;-81
2021/10/10 02:24:07;;;;;;;7.23;5.30;;;;;;;;;;5107962;28;20448;-80
2021/10/10 02:26:33;;;;;;;9.00;5.77;;;;;;;;;;5109197;28;20459;-81
2021/10/10 02:29:00;;;;;;;13.10;5.67;;;;;;;;;;5109265;28;20460;-80
2021/10/10 02:31:28;;;;;;;9.20;6.07;;;;;;;;;;5109316;28;20510;-81
2021/10/10 02:33:55;;;;;;;14.20;6.30;;;;;;;;;;5109662;28;20536;-81
2021/10/10 02:36:22;;;;;;;8.20;5.40;;;;;;;;;;5108925;28;20444;-81
2021/10/10 02:38:49;;;;;;;8.90;5.73;;;;;;;;;;5110810;28;20697;-82
2021/10/10 02:41:16;;;;;;;10.60;6.20;;;;;;;;;;5107151;28;20502;-81
2021/10/10 02:43:43;;;;;;;7.93;6.03;;;;;;;;;;5108880;28;20495;-82
2021/10/10 02:46:10;;;;;;;6.70;4.20;;;;;;;;;;5106289;28;20515;-82
2021/10/10 02:48:38;;;;;;;9.83;6.23;;;;;;;;;;5107463;28;20460;-82
2021/10/10 02:51:05;;;;;;;9.30;5.47;;;;;;;;;;5107611;28;20743;-81
2021/10/10 02:53:32;;;;;;;8.97;6.20;;;;;;;;;;5107997;28;20482;-82
2021/10/10 02:55:59;;;;;;;9.00;5.97;;;;;;;;;;5103894;28;20498;-82
2021/10/10 02:58:26;;;;;;;8.77;5.80;;;;;;;;;;5103257;28;20803;-81
2021/10/10 03:00:53;;;;;;;8.47;5.13;;;;;;;;;;5106421;28;20567;-80
2021/10/10 03:03:20;;;;;;;11.13;6.70;;;;;;;;;;5106089;28;20452;-80
2021/10/10 03:05:48;;;;;;;9.57;6.50;;;;;;;;;;5107808;28;20451;-80
2021/10/10 03:08:15;;;;;;;11.03;6.70;;;;;;;;;;5104419;28;20895;-81
2021/10/10 03:10:42;;;;;;;10.73;7.13;;;;;;;;;;5105853;28;20443;-81
2021/10/10 03:13:09;;;;;;;7.57;6.47;;;;;;;;;;5107981;28;20502;-80
2021/10/10 03:15:36;;;;;;;10.37;7.00;;;;;;;;;;5106148;28;20455;-80
2021/10/10 03:18:03;;;;;;;12.27;7.10;;;;;;;;;;5107980;28;20455;-82
2021/10/10 03:20:30;;;;;;;13.13;8.27;;;;;;;;;;5105993;28;20578;-82
2021/10/10 03:22:58;;;;;;;10.37;6.53;;;;;;;;;;5106675;28;20717;-80
2021/10/10 03:25:28;;;;;;;11.27;6.83;;;;;;;;;;5107110;28;20479;-82
2021/10/10 03:27:55;;;;;;;7.80;5.60;;;;;;;;;;5107251;28;20484;-82
2021/10/10 03:30:22;;;;;;;7.60;5.30;;;;;;;;;;5107536;28;20475;-81
2021/10/10 03:32:49;;;;;;;7.80;5.83;;;;;;;;;;5107495;28;20459;-81
2021/10/10 03:35:16;;;;;;;8.27;5.47;;;;;;;;;;5106314;28;20473;-81
2021/10/10 03:37:43;;;;;;;10.63;5.43;;;;;;;;;;5107850;28;20463;-82
2021/10/10 03:40:12;;;;;;;14.03;6.00;;;;;;;;;;5106545;28;20579;-82
2021/10/10 03:42:39;;;;;;;8.93;6.07;;;;;;;;;;5107080;28;20478;-80
2021/10/10 03:45:07;;;;;;;9.43;5.20;;;;;;;;;;5106243;28;20444;-81
2021/10/10 03:47:34;;;;;;;8.83;6.10;;;;;;;;;;5106157;28;20456;-80
2021/10/10 03:50:02;;;;;;;9.53;5.63;;;;;;;;;;5106616;28;20450;-81
2021/10/10 03:52:29;;;;;;;8.67;5.50;;;;;;;;;;5107428;28;20456;-82
2021/10/10 03:57:50;;;;;;;7.60;5.47;;;;;;;;;;5106191;28;20491;-81
2021/10/10 04:00:17;;;;;;;10.73;6.50;;;;;;;;;;5106052;28;20484;-82
2021/10/10 04:02:44;;;;;;;10.03;6.40;;;;;;;;;;5106802;28;20543;-80
2021/10/10 04:05:19;;;;;;;12.10;6.80;;;;;;;;;;5106603;28;20455;-82
2021/10/10 04:07:46;;;;;;;9.17;5.50;;;;;;;;;;5106131;28;20527;-80
2021/10/10 04:10:13;;;;;;;10.47;6.93;;;;;;;;;;5107060;28;20501;-81
2021/10/10 04:12:41;;;;;;;9.00;5.50;;;;;;;;;;5105813;28;20467;-81
2021/10/10 04:15:18;;;;;;;8.90;5.80;;;;;;;;;;5106129;28;20447;-82
2021/10/10 04:17:46;;;;;;;10.10;5.87;;;;;;;;;;5107762;28;20489;-81
2021/10/10 04:20:14;;;;;;;12.20;7.67;;;;;;;;;;5105774;28;20807;-80
2021/10/10 04:22:41;;;;;;;13.10;6.60;;;;;;;;;;5106625;28;20872;-81
2021/10/10 04:25:09;;;;;;;9.23;5.90;;;;;;;;;;5106425;28;20451;-81
2021/10/10 04:27:37;;;;;;;9.10;5.67;;;;;;;;;;5106677;28;20494;-81
2021/10/10 04:30:05;;;;;;;10.43;6.90;;;;;;;;;;5106525;28;20472;-81
2021/10/10 04:32:33;;;;;;;11.63;6.40;;;;;;;;;;5105427;28;20480;-81
2021/10/10 04:35:00;;;;;;;10.13;5.90;;;;;;;;;;5106399;28;20475;-82
2021/10/10 04:37:27;;;;;;;8.23;6.37;;;;;;;;;;5107190;28;20506;-80
2021/10/10 04:39:54;;;;;;;10.90;6.90;;;;;;;;;;5106381;28;20440;-81
2021/10/10 04:42:21;;;;;;;6.20;5.40;;;;;;;;;;5107174;28;20499;-80
2021/10/10 04:44:48;;;;;;;11.60;6.23;;;;;;;;;;5107507;28;20830;-82
2021/10/10 04:47:15;;;;;;;15.33;5.73;;;;;;;;;;5108217;28;20489;-81
2021/10/10 04:49:43;;;;;;;8.70;6.00;;;;;;;;;;5109688;28;20451;-82
2021/10/10 04:52:10;;;;;;;9.60;6.20;;;;;;;;;;5109208;28;20487;-81
2021/10/10 04:54:37;;;;;;;11.67;6.33;;;;;;;;;;5110357;28;20439;-82
2021/10/10 04:57:04;;;;;;;10.07;5.83;;;;;;;;;;5109579;28;20523;-81
2021/10/10 04:59:31;;;;;;;8.13;5.57;;;;;;;;;;5109408;28;20539;-80
2021/10/10 05:01:58;;;;;;;10.17;5.43;;;;;;;;;;5108070;28;20836;-82
2021/10/10 05:04:25;;;;;;;8.90;6.63;;;;;;;;;;5109312;28;20447;-82
2021/10/10 05:06:53;;;;;;;10.83;6.10;;;;;;;;;;5110212;28;20471;-81
2021/10/10 05:09:20;;;;;;;11.70;6.80;;;;;;;;;;5109483;28;20491;-81
2021/10/10 05:11:47;;;;;;;8.77;6.00;;;;;;;;;;5110448;28;20758;-82
2021/10/10 05:14:14;;;;;;;8.40;5.63;;;;;;;;;;5109558;28;20446;-82
2021/10/10 05:16:41;;;;;;;12.40;6.20;;;;;;;;;;5110146;28;20479;-81
2021/10/10 05:19:08;;;;;;;7.67;5.80;;;;;;;;;;5110461;28;20516;-80
2021/10/10 05:21:35;;;;;;;6.13;4.50;;;;;;;;;;5109939;28;20522;-82
2021/10/10 05:24:02;;;;;;;12.43;5.53;;;;;;;;;;5109551;28;20456;-82
2021/10/10 05:26:29;;;;;;;8.87;6.47;;;;;;;;;;5109368;28;20487;-81
2021/10/10 05:28:56;;;;;;;12.53;6.80;;;;;;;;;;5107640;28;20893;-82
2021/10/10 05:31:23;;;;;;;10.87;6.47;;;;;;;;;;5109053;28;20543;-80
2021/10/10 05:33:50;;;;;;;8.87;6.00;;;;;;;;;;5108811;28;20469;-82
2021/10/10 05:36:17;;;;;;;9.27;6.20;;;;;;;;;;5106821;28;20539;-80
2021/10/10 05:38:44;;;;;;;9.43;5.80;;;;;;;;;;5108146;28;20642;-83
2021/10/10 05:41:12;;;;;;;12.00;6.57;;;;;;;;;;5107041;27;20832;-82
2021/10/10 05:43:39;;;;;;;10.97;6.63;;;;;;;;;;5108235;28;20515;-81
2021/10/10 05:46:07;;;;;;;7.90;6.00;;;;;;;;;;5108291;28;20450;-82
2021/10/10 05:48:34;;;;;;;9.93;7.03;;;;;;;;;;5108171;28;20455;-82
2021/10/10 05:51:00;;;;;;;10.53;7.33;;;;;;;;;;5109164;28;20458;-80
2021/10/10 05:53:28;;;;;;;14.90;7.93;;;;;;;;;;5107346;28;20530;-81
2021/10/10 05:55:59;;;;;;;9.43;6.97;;;;;;;;;;5107856;28;20458;-80
2021/10/10 05:58:28;;;;;;;10.80;6.33;;;;;;;;;;5108374;28;20459;-80
2021/10/10 06:00:55;;;;;;;9.07;6.50;;;;;;;;;;5108043;28;20483;-81
2021/10/10 06:03:22;;;;;;;9.60;6.57;;;;;;;;;;5109340;28;20455;-79
2021/10/10 06:05:50;;;;;;;10.57;6.93;;;;;;;;;;5108536;28;20483;-81
2021/10/10 06:08:17;;;;;;;7.33;5.17;;;;;;;;;;5108994;28;20942;-82
2021/10/10 06:10:44;;;;;;;8.93;6.57;;;;;;;;;;5109252;28;20452;-79
2021/10/10 06:13:27;;;;;;;15.17;7.77;;;;;;;;;;5109221;28;20447;-81
2021/10/10 06:15:55;;;;;;;13.07;7.27;;;;;;;;;;5110648;28;20458;-82
2021/10/10 06:18:23;;;;;;;8.70;6.90;;;;;;;;;;5110126;28;20460;-82
2021/10/10 06:20:50;;;;;;;9.67;6.97;;;;;;;;;;5111134;28;20479;-82
2021/10/10 06:23:19;;;;;;;11.23;6.73;;;;;;;;;;5112278;28;20471;-79
2021/10/10 06:25:46;;;;;;;18.23;7.87;;;;;;;;;;5110161;28;20863;-81
2021/10/10 06:28:13;;;;;;;12.47;7.43;;;;;;;;;;5109900;28;20452;-81
2021/10/10 06:30:41;;;;;;;11.57;6.70;;;;;;;;;;5107419;28;20466;-81
2021/10/10 06:33:09;;;;;;;9.90;6.63;;;;;;;;;;5110511;28;20490;-81
2021/10/10 06:35:37;;;;;;;14.50;7.57;;;;;;;;;;5109703;28;20447;-81
2021/10/10 06:38:04;;;;;;;27.53;12.30;;;;;;;;;;5108529;28;20460;-80
2021/10/10 06:40:31;;;;;;;10.03;7.67;;;;;;;;;;5108305;28;20547;-81
2021/10/10 06:43:02;;;;;;;13.50;6.67;;;;;;;;;;5108466;28;20462;-81
2021/10/10 06:45:31;;;;;;;11.47;6.50;;;;;;;;;;5108646;28;20861;-81
2021/10/10 06:47:59;;;;;;;16.30;7.90;;;;;;;;;;5110380;28;20509;-79
2021/10/10 06:50:27;;;;;;;13.23;7.47;;;;;;;;;;5111746;28;20485;-83
2021/10/10 06:52:54;;;;;;;12.70;7.30;;;;;;;;;;5113657;28;20466;-80
2021/10/10 06:55:21;;;;;;;12.07;8.10;;;;;;;;;;5107947;28;20440;-81
2021/10/10 06:57:48;;;;;;;10.83;6.43;;;;;;;;;;5104877;28;20475;-81
2021/10/10 07:00:16;;;;;;;10.37;7.97;;;;;;;;;;5104745;28;20561;-81
2021/10/10 07:02:43;;;;;;;13.93;8.37;;;;;;;;;;5102970;28;20756;-81
2021/10/10 07:05:16;;;;;;;12.57;8.40;;;;;;;;;;5107004;28;20470;-80
2021/10/10 07:07:43;;;;;;;16.13;8.53;;;;;;;;;;5102511;28;20451;-80
2021/10/10 07:10:11;;;;;;;10.93;7.87;;;;;;;;;;5104717;28;20471;-80
2021/10/10 07:12:38;;;;;;;12.50;8.50;;;;;;;;;;5103434;28;20579;-81
2021/10/10 07:15:07;;;;;;;12.07;8.17;;;;;;;;;;5105050;28;20452;-80
2021/10/10 07:17:34;;;;;;;12.77;8.90;;;;;;;;;;5102215;28;20769;-81
2021/10/10 07:20:04;;;;;;;11.30;7.50;;;;;;;;;;5101440;28;20487;-80
2021/10/10 07:22:44;;;;;;;13.33;8.90;;;;;;;;;;5103640;28;20447;-81
2021/10/10 07:25:12;;;;;;;13.60;9.33;;;;;;;;;;5104052;28;20554;-80
2021/10/10 07:27:40;;;;;;;13.23;10.10;;;;;;;;;;5106024;28;20891;-80
2021/10/10 07:30:08;;;;;;;15.63;10.57;;;;;;;;;;5107190;28;20444;-81
2021/10/10 07:32:35;;;;;;;13.83;9.00;;;;;;;;;;5102836;28;20467;-80
2021/10/10 07:35:02;;;;;;;11.60;8.27;;;;;;;;;;5104065;28;20751;-80
2021/10/10 07:37:29;;;;;;;16.77;10.00;;;;;;;;;;5102225;28;20460;-82
2021/10/10 07:39:56;;;;;;;11.63;8.10;;;;;;;;;;5102593;28;20455;-80
2021/10/10 07:42:24;;;;;;;10.80;8.40;;;;;;;;;;5101605;28;20471;-80
2021/10/10 07:44:53;;;;;;;14.30;8.67;;;;;;;;;;5104127;28;20507;-80
2021/10/10 07:47:35;;;;;;;12.80;8.87;;;;;;;;;;5103992;28;20484;-79
2021/10/10 07:50:02;;;;;;;17.10;10.40;;;;;;;;;;5102560;28;20851;-81
2021/10/10 07:52:29;;;;;;;14.40;9.50;;;;;;;;;;5103219;28;20485;-80
2021/10/10 07:54:56;;;;;;;13.70;8.90;;;;;;;;;;5103465;28;20480;-81
2021/10/10 07:57:24;;;;;;;13.80;8.70;;;;;;;;;;5101664;28;20443;-79
2021/10/10 07:59:55;;;;;;;13.83;9.30;;;;;;;;;;5102734;28;20475;-79
2021/10/10 08:02:26;;;;;;;12.10;9.40;;;;;;;;;;5103737;28;20858;-80
2021/10/10 08:04:54;;;;;;;17.43;10.13;;;;;;;;;;5103446;28;20513;-81
2021/10/10 08:07:21;;;;;;;13.43;9.37;;;;;;;;;;5101985;28;20507;-80
2021/10/10 08:09:48;;;;;;;14.10;8.20;;;;;;;;;;5107177;28;20470;-80
2021/10/10 08:12:15;;;;;;;14.80;8.83;;;;;;;;;;5108458;28;20444;-81
2021/10/10 08:14:43;;;;;;;17.73;9.20;;;;;;;;;;5102904;28;20470;-81
2021/10/10 08:17:10;;;;;;;20.03;9.47;;;;;;;;;;5107909;28;20490;-82
2021/10/10 08:19:39;;;;;;;15.23;9.13;;;;;;;;;;5108700;28;20773;-81
2021/10/10 08:22:06;;;;;;;19.47;10.03;;;;;;;;;;5105568;28;20487;-83
2021/10/10 08:24:33;;;;;;;16.03;9.13;;;;;;;;;;5107585;28;20467;-82
2021/10/10 08:27:00;;;;;;;16.33;10.20;;;;;;;;;;5109810;28;20462;-82
2021/10/10 08:29:30;;;;;;;12.50;7.87;;;;;;;;;;5108104;28;20486;-82
2021/10/10 08:32:00;;;;;;;13.90;8.93;;;;;;;;;;5106912;28;20770;-82
2021/10/10 08:34:28;;;;;;;12.50;8.43;;;;;;;;;;5106689;28;20785;-80
2021/10/10 08:37:01;;;;;;;19.80;10.00;;;;;;;;;;5106207;28;20457;-82
2021/10/10 08:39:28;;;;;;;15.70;8.43;;;;;;;;;;5105856;28;20444;-81
2021/10/10 08:42:02;;;;;;;14.93;8.20;;;;;;;;;;5105746;28;20511;-82
2021/10/10 08:44:32;;;;;;;12.97;9.03;;;;;;;;;;5106743;28;20938;-82
2021/10/10 08:47:02;;;;;;;12.77;8.80;;;;;;;;;;5104678;28;20711;-82
2021/10/10 08:49:30;;;;;;;12.83;8.23;;;;;;;;;;5106669;28;20448;-82
2021/10/10 08:51:58;;;;;;;14.00;9.13;;;;;;;;;;5104782;28;20601;-83
2021/10/10 08:54:25;;;;;;;12.97;9.00;;;;;;;;;;5106000;28;20452;-82
2021/10/10 08:56:53;;;;;;;14.80;8.80;;;;;;;;;;5106626;28;20479;-81
2021/10/10 08:59:21;;;;;;;13.17;8.53;;;;;;;;;;5101113;28;20628;-79
2021/10/10 09:01:49;;;;;;;11.73;7.77;;;;;;;;;;5101141;28;20617;-82
2021/10/10 09:04:16;;;;;;;13.00;8.93;;;;;;;;;;5104677;28;20447;-82
2021/10/10 09:06:44;;;;;;;12.80;8.93;;;;;;;;;;5103650;28;20460;-82
2021/10/10 09:09:30;;;;;;;14.57;9.20;;;;;;;;;;5104891;28;20521;-81
2021/10/10 09:12:01;;;;;;;12.30;8.77;;;;;;;;;;5106446;28;20467;-83
2021/10/10 09:14:28;;;;;;;13.47;8.47;;;;;;;;;;5125051;28;20455;-81
2021/10/10 09:17:09;;;;;;;15.87;8.67;;;;;;;;;;5125739;28;20519;-80
2021/10/10 09:19:38;;;;;;;15.27;8.70;;;;;;;;;;5129766;28;20435;-81
2021/10/10 09:22:06;;;;;;;15.00;9.40;;;;;;;;;;5120001;28;20503;-82
2021/10/10 09:24:33;;;;;;;13.87;8.50;;;;;;;;;;5106066;28;20539;-82
2021/10/10 09:27:03;;;;;;;18.93;8.60;;;;;;;;;;5103878;28;20463;-83
2021/10/10 09:29:36;;;;;;;10.87;8.47;;;;;;;;;;5119777;28;20470;-82
2021/10/10 09:32:13;;;;;;;14.27;9.13;;;;;;;;;;5132293;28;20529;-83
2021/10/10 09:34:42;;;;;;;15.47;8.67;;;;;;;;;;5135104;28;20972;-81
2021/10/10 09:37:11;;;;;;;10.63;8.27;;;;;;;;;;5127019;28;20466;-82
2021/10/10 09:39:41;;;;;;;18.77;10.90;;;;;;;;;;5131896;28;20450;-82
2021/10/10 09:42:08;;;;;;;16.57;10.23;;;;;;;;;;5124843;28;20478;-82
2021/10/10 09:44:52;;;;;;;12.97;9.27;;;;;;;;;;5113345;28;20918;-83
2021/10/10 09:47:20;;;;;;;16.57;9.10;;;;;;;;;;5088529;28;20460;-83
2021/10/10 09:49:48;;;;;;;13.97;9.17;;;;;;;;;;5087744;28;20478;-83
2021/10/10 09:52:16;;;;;;;13.93;9.33;;;;;;;;;;5087030;28;20471;-82
2021/10/10 09:54:50;;;;;;;12.77;8.50;;;;;;;;;;5095116;28;20482;-83
2021/10/10 09:57:18;;;;;;;13.43;9.27;;;;;;;;;;5111480;28;20455;-82
2021/10/10 09:59:45;;;;;;;15.60;9.10;;;;;;;;;;5127223;28;20450;-79
2021/10/10 10:02:12;;;;;;;14.27;10.03;;;;;;;;;;5128892;28;20525;-82
2021/10/10 10:04:43;;;;;;;13.73;8.23;;;;;;;;;;5128559;28;20464;-82
2021/10/10 10:07:11;;;;;;;11.33;7.80;;;;;;;;;;5129238;28;20458;-83
2021/10/10 10:09:41;;;;;;;12.80;8.57;;;;;;;;;;5124444;28;20452;-82
2021/10/10 10:12:10;;;;;;;14.10;9.57;;;;;;;;;;5113284;28;20465;-82
2021/10/10 10:14:37;;;;;;;11.43;8.10;;;;;;;;;;5109329;28;20521;-82
2021/10/10 10:17:05;;;;;;;12.50;8.10;;;;;;;;;;5106890;28;20456;-82
2021/10/10 10:19:35;;;;;;;17.00;8.07;;;;;;;;;;5106731;28;20448;-81
2021/10/10 10:22:02;;;;;;;9.97;7.80;;;;;;;;;;5107930;28;20479;-82
2021/10/10 10:24:32;;;;;;;13.90;9.43;;;;;;;;;;5114375;28;20446;-81
2021/10/10 10:27:00;;;;;;;13.00;7.87;;;;;;;;;;5131458;28;20435;-83
2021/10/10 10:29:29;;;;;;;11.27;8.17;;;;;;;;;;5129156;28;20544;-82
2021/10/10 10:31:58;;;;;;;14.30;7.87;;;;;;;;;;5128121;28;20469;-84
2021/10/10 10:34:26;;;;;;;15.40;8.70;;;;;;;;;;5128788;28;20450;-81
2021/10/10 10:36:54;;;;;;;12.67;9.03;;;;;;;;;;5127920;28;20451;-84
2021/10/10 10:39:49;;;;;;;11.60;8.83;;;;;;;;;;5130249;28;20447;-81
2021/10/10 10:42:36;;;;;;;13.37;8.57;;;;;;;;;;5084439;28;20475;-83
2021/10/10 10:45:18;;;;;;;11.60;9.50;;;;;;;;;;5131595;28;20450;-82
2021/10/10 10:47:46;;;;;;;12.03;7.80;;;;;;;;;;5129437;28;20439;-82
2021/10/10 10:50:14;;;;;;;8.50;6.27;;;;;;;;;;5123378;28;20754;-81
2021/10/10 10:52:42;;;;;;;10.93;6.80;;;;;;;;;;5123906;28;20459;-79
2021/10/10 10:55:20;;;;;;;10.07;7.23;;;;;;;;;;5124101;28;20447;-82
2021/10/10 10:57:51;;;;;;;12.00;8.23;;;;;;;;;;5123321;28;20447;-82
2021/10/10 11:00:23;;;;;;;11.00;8.03;;;;;;;;;;5110013;28;20548;-82
2021/10/10 11:03:02;;;;;;;10.30;7.57;;;;;;;;;;5107406;28;20482;-82
2021/10/10 11:05:31;;;;;;;12.00;9.53;;;;;;;;;;5104533;28;20454;-82
2021/10/10 11:07:58;;;;;;;9.67;6.57;;;;;;;;;;5111157;28;20443;-80
2021/10/10 11:10:25;;;;;;;12.63;7.57;;;;;;;;;;5127547;28;20442;-81
2021/10/10 11:12:55;;;;;;;9.50;7.33;;;;;;;;;;5126797;28;20492;-82
2021/10/10 11:15:22;;;;;;;11.73;7.90;;;;;;;;;;5128491;28;20442;-83
2021/10/10 11:17:54;;;;;;;14.10;9.10;;;;;;;;;;5127459;28;20484;-81
2021/10/10 11:20:21;;;;;;;21.30;10.10;;;;;;;;;;5125244;28;20575;-82
2021/10/10 11:22:48;;;;;;;12.20;7.80;;;;;;;;;;5126166;28;20494;-81
2021/10/10 11:25:15;;;;;;;11.87;8.10;;;;;;;;;;5126531;28;20529;-82
2021/10/10 11:27:42;;;;;;;14.17;9.57;;;;;;;;;;5126763;28;20447;-82
2021/10/10 11:30:13;;;;;;;13.60;8.03;;;;;;;;;;5125615;28;20450;-81
2021/10/10 11:32:55;;;;;;;13.70;10.13;;;;;;;;;;5125147;28;20519;-81
2021/10/10 11:35:26;;;;;;;13.93;8.53;;;;;;;;;;5125874;28;20443;-81
2021/10/10 11:38:04;;;;;;;12.83;8.67;;;;;;;;;;5124673;28;20454;-80
2021/10/10 11:40:31;;;;;;;12.23;8.63;;;;;;;;;;5123888;28;20481;-81
2021/10/10 11:42:59;;;;;;;11.60;7.83;;;;;;;;;;5122701;28;20483;-81
2021/10/10 11:45:28;;;;;;;13.87;7.87;;;;;;;;;;5123082;28;20565;-80
2021/10/10 11:47:58;;;;;;;12.80;8.27;;;;;;;;;;5129242;28;20455;-81
2021/10/10 11:50:35;;;;;;;14.17;7.67;;;;;;;;;;5131109;28;20453;-80
2021/10/10 11:53:03;;;;;;;13.70;7.60;;;;;;;;;;5129138;28;20442;-82
2021/10/10 11:55:35;;;;;;;10.93;7.33;;;;;;;;;;5129692;28;20447;-80
2021/10/10 11:58:06;;;;;;;12.47;7.33;;;;;;;;;;5129474;28;20503;-83
2021/10/10 12:00:34;;;;;;;13.07;7.97;;;;;;;;;;5129069;28;20901;-80
2021/10/10 12:03:05;;;;;;;9.60;7.27;;;;;;;;;;5128442;28;20815;-84
2021/10/10 12:05:39;;;;;;;14.13;8.20;;;;;;;;;;5130456;28;20450;-80
2021/10/10 12:08:16;;;;;;;12.37;8.63;;;;;;;;;;5128844;28;20443;-79
2021/10/10 12:10:45;;;;;;;13.77;8.57;;;;;;;;;;5127259;28;20437;-81
2021/10/10 12:13:12;;;;;;;11.70;7.83;;;;;;;;;;5126902;28;20469;-81
2021/10/10 12:15:40;;;;;;;14.47;9.20;;;;;;;;;;5127190;28;20546;-83
2021/10/10 12:18:11;;;;;;;12.03;8.97;;;;;;;;;;5126799;28;20451;-80
2021/10/10 12:20:38;;;;;;;16.10;9.23;;;;;;;;;;5120163;28;20478;-82
2021/10/10 12:23:07;;;;;;;16.20;10.37;;;;;;;;;;5122629;28;20768;-83
2021/10/10 12:25:34;;;;;;;21.90;9.30;;;;;;;;;;5120790;28;20797;-82
2021/10/10 12:28:03;;;;;;;10.30;7.53;;;;;;;;;;5120749;28;20478;-82
2021/10/10 12:30:31;;;;;;;13.17;9.20;;;;;;;;;;5113751;28;20531;-81
2021/10/10 12:32:59;;;;;;;11.30;8.57;;;;;;;;;;5103669;27;20444;-81
2021/10/10 12:35:26;;;;;;;13.90;9.80;;;;;;;;;;5094042;27;20967;-80
2021/10/10 12:37:54;;;;;;;12.43;8.70;;;;;;;;;;5103226;28;20483;-82
2021/10/10 12:40:25;;;;;;;14.87;9.30;;;;;;;;;;5097785;28;20451;-81
2021/10/10 12:42:52;;;;;;;13.27;9.90;;;;;;;;;;5099800;28;20439;-82
2021/10/10 12:45:30;;;;;;;12.30;8.70;;;;;;;;;;5100430;28;20462;-80
2021/10/10 12:48:11;;;;;;;13.03;10.73;;;;;;;;;;5100672;28;20477;-81
2021/10/10 12:50:51;;;;;;;13.23;9.33;;;;;;;;;;5098388;28;20459;-81
2021/10/10 12:53:30;;;;;;;14.30;10.80;;;;;;;;;;5101931;28;20431;-79
2021/10/10 12:56:18;;;;;;;14.93;10.03;;;;;;;;;;5100446;28;20492;-81
2021/10/10 12:58:46;;;;;;;15.47;9.93;;;;;;;;;;5101986;28;20922;-81
2021/10/10 13:01:13;;;;;;;18.77;11.50;;;;;;;;;;5101997;28;20479;-81
2021/10/10 13:03:42;;;;;;;12.40;9.63;;;;;;;;;;5102778;28;20451;-82
2021/10/10 13:06:10;;;;;;;13.23;8.70;;;;;;;;;;5104893;28;20448;-83
2021/10/10 13:08:47;;;;;;;20.00;9.40;;;;;;;;;;5106529;28;20447;-82
2021/10/10 13:11:14;;;;;;;11.67;8.70;;;;;;;;;;5110011;28;20451;-82
2021/10/10 13:13:43;;;;;;;12.87;8.70;;;;;;;;;;5116675;28;20461;-81
2021/10/10 13:16:10;;;;;;;10.07;7.97;;;;;;;;;;5086646;28;20467;-82
2021/10/10 13:18:41;;;;;;;13.70;9.63;;;;;;;;;;5085060;28;20856;-83
2021/10/10 13:21:09;;;;;;;11.83;8.37;;;;;;;;;;5087022;28;20541;-84
2021/10/10 13:23:38;;;;;;;13.73;8.80;;;;;;;;;;5087410;28;20557;-83
2021/10/10 13:26:05;;;;;;;14.37;8.50;;;;;;;;;;5085582;28;20455;-82
2021/10/10 13:28:33;;;;;;;14.57;9.20;;;;;;;;;;5093152;28;20451;-82
2021/10/10 13:31:02;;;;;;;10.57;8.43;;;;;;;;;;5087968;28;20461;-81
2021/10/10 13:33:29;;;;;;;13.57;8.70;;;;;;;;;;5084542;28;20444;-81
2021/10/10 13:35:58;;;;;;;13.30;8.60;;;;;;;;;;5082710;28;20891;-82
2021/10/10 13:38:26;;;;;;;17.80;9.20;;;;;;;;;;5099082;28;20500;-81
2021/10/10 13:40:54;;;;;;;11.17;7.87;;;;;;;;;;5120591;28;20645;-82
2021/10/10 13:43:21;;;;;;;11.70;7.50;;;;;;;;;;5118778;28;20440;-82
2021/10/10 13:45:55;;;;;;;9.60;7.10;;;;;;;;;;5101266;28;20787;-82
2021/10/10 13:48:22;;;;;;;9.93;7.60;;;;;;;;;;5102190;28;20524;-80
2021/10/10 13:50:49;;;;;;;10.87;6.87;;;;;;;;;;5107073;28;20460;-83
2021/10/10 13:53:16;;;;;;;15.63;8.37;;;;;;;;;;5106226;28;20454;-82
2021/10/10 13:55:44;;;;;;;14.10;8.10;;;;;;;;;;5104373;28;20459;-82
2021/10/10 13:58:11;;;;;;;11.70;7.50;;;;;;;;;;5105122;28;20455;-82
2021/10/10 14:00:38;;;;;;;8.00;6.10;;;;;;;;;;5107637;28;20562;-82
2021/10/10 14:03:05;;;;;;;8.00;6.30;;;;;;;;;;5107526;27;20439;-82
2021/10/10 14:05:33;;;;;;;8.13;5.87;;;;;;;;;;5105863;28;20462;-83
2021/10/10 14:08:00;;;;;;;8.87;4.80;;;;;;;;;;5107776;28;20758;-81
2021/10/10 14:10:27;;;;;;;9.03;6.20;;;;;;;;;;5107743;28;20491;-81
2021/10/10 14:12:54;;;;;;;9.30;6.57;;;;;;;;;;5105853;28;20454;-82
2021/10/10 14:15:21;;;;;;;8.83;5.27;;;;;;;;;;5104727;28;20530;-81
2021/10/10 14:18:05;;;;;;;10.40;5.03;;;;;;;;;;5104792;28;20486;-80
2021/10/10 14:20:33;;;;;;;11.93;7.03;;;;;;;;;;5103073;28;20474;-81
2021/10/10 14:23:00;;;;;;;7.00;5.57;;;;;;;;;;5102932;28;20468;-81
2021/10/10 14:25:28;;;;;;;12.43;6.40;;;;;;;;;;5102535;28;20550;-81
2021/10/10 14:28:11;;;;;;;12.47;7.97;;;;;;;;;;5102790;28;20465;-81
2021/10/10 14:30:39;;;;;;;6.13;5.53;;;;;;;;;;5103865;28;20463;-80
2021/10/10 14:33:07;;;;;;;10.77;6.77;;;;;;;;;;5104043;28;20672;-79
2021/10/10 14:35:38;;;;;;;15.97;9.10;;;;;;;;;;5100861;28;21065;-81
2021/10/10 14:38:10;;;;;;;12.37;5.50;;;;;;;;;;5101703;28;20493;-82
2021/10/10 14:40:41;;;;;;;9.70;6.63;;;;;;;;;;5100757;28;20460;-80
2021/10/10 14:43:10;;;;;;;7.23;5.97;;;;;;;;;;5099177;28;20440;-80
2021/10/10 14:45:46;;;;;;;9.13;5.53;;;;;;;;;;5100585;28;20463;-79